Webcam Flughafen St.Gallen-Altenrhein

Live-Bilder und Zeitraffer LSZR / ACH.

 

Live aus Altenrhein
LIVE
LSZR 110920Z VRB03KT 9999 FEW060 14/12 Q1006 NOSIG RMK F
Zeitraffer heute
2021-05-11 00:14:04
LSZR 102150Z AUTO 27005KT 9999 BKN095 13/11 Q1009